createdAt,value
2024-05-09T00:00:10.506Z,495.00
2024-05-09T00:01:08.145Z,494.00
2024-05-09T00:02:07.111Z,493.00
2024-05-09T00:03:07.358Z,492.00
2024-05-09T00:04:07.112Z,494.00
2024-05-09T00:05:07.273Z,494.00
2024-05-09T00:06:07.215Z,494.00
2024-05-09T00:07:07.094Z,492.00
2024-05-09T00:08:07.139Z,492.00
2024-05-09T00:09:07.130Z,490.00
2024-05-09T00:10:14.526Z,491.00
2024-05-09T00:11:08.291Z,490.00
2024-05-09T00:12:07.265Z,490.00
2024-05-09T00:13:07.645Z,491.00
2024-05-09T00:14:07.224Z,493.00
2024-05-09T00:15:07.208Z,495.00
2024-05-09T00:16:07.231Z,500.00
2024-05-09T00:17:07.294Z,498.00
2024-05-09T00:18:08.041Z,498.00
2024-05-09T00:19:07.344Z,499.00
2024-05-09T00:20:14.324Z,498.00
2024-05-09T00:21:08.539Z,499.00
2024-05-09T00:22:07.327Z,499.00
2024-05-09T00:23:07.857Z,500.00
2024-05-09T00:24:07.319Z,500.00
2024-05-09T00:25:07.325Z,500.00
2024-05-09T00:26:07.462Z,499.00
2024-05-09T00:27:08.469Z,500.00
2024-05-09T00:28:07.357Z,501.00
2024-05-09T00:29:07.391Z,501.00
2024-05-09T00:30:07.542Z,502.00
2024-05-09T00:31:07.488Z,501.00
2024-05-09T00:32:07.593Z,501.00
2024-05-09T00:33:09.206Z,500.00
2024-05-09T00:34:07.700Z,499.00
2024-05-09T00:35:07.702Z,499.00
2024-05-09T00:36:07.643Z,499.00
2024-05-09T00:37:07.633Z,499.00
2024-05-09T00:38:07.736Z,499.00
2024-05-09T00:39:07.633Z,497.00
2024-05-09T00:40:14.902Z,496.00
2024-05-09T00:41:08.676Z,497.00
2024-05-09T00:42:07.656Z,495.00
2024-05-09T00:43:07.649Z,495.00
2024-05-09T00:44:07.701Z,495.00
2024-05-09T00:45:07.667Z,492.00
2024-05-09T00:46:07.671Z,492.00
2024-05-09T00:47:07.942Z,491.00
2024-05-09T00:48:09.096Z,490.00
2024-05-09T00:49:07.710Z,489.00
2024-05-09T00:50:12.718Z,488.00
2024-05-09T00:51:08.700Z,490.00
2024-05-09T00:52:07.679Z,489.00
2024-05-09T00:53:07.751Z,488.00
2024-05-09T00:54:07.674Z,491.00
2024-05-09T00:55:07.671Z,490.00
2024-05-09T00:56:07.704Z,488.00
2024-05-09T00:57:07.682Z,487.00
2024-05-09T00:58:07.711Z,489.00
2024-05-09T00:59:07.738Z,490.00
2024-05-09T01:00:15.044Z,493.00
2024-05-09T01:01:08.774Z,493.00
2024-05-09T01:02:07.855Z,495.00
2024-05-09T01:03:08.467Z,495.00
2024-05-09T01:04:07.896Z,492.00
2024-05-09T01:05:07.839Z,494.00
2024-05-09T01:06:07.802Z,496.00
2024-05-09T01:07:07.783Z,497.00
2024-05-09T01:08:08.036Z,495.00
2024-05-09T01:09:07.823Z,494.00
2024-05-09T01:10:14.085Z,495.00
2024-05-09T01:11:08.987Z,499.00
2024-05-09T01:12:07.986Z,498.00
2024-05-09T01:13:07.896Z,497.00
2024-05-09T01:14:07.922Z,496.00
2024-05-09T01:15:07.885Z,496.00
2024-05-09T01:16:07.893Z,495.00
2024-05-09T01:17:07.968Z,496.00
2024-05-09T01:18:08.124Z,495.00
2024-05-09T01:19:08.112Z,494.00
2024-05-09T01:20:10.901Z,495.00
2024-05-09T01:21:09.026Z,495.00
2024-05-09T01:22:08.015Z,497.00
2024-05-09T01:23:08.097Z,497.00
2024-05-09T01:24:08.008Z,495.00
2024-05-09T01:25:08.013Z,491.00
2024-05-09T01:26:08.068Z,490.00
2024-05-09T01:27:08.021Z,491.00
2024-05-09T01:28:08.020Z,491.00
2024-05-09T01:29:08.115Z,491.00
2024-05-09T01:30:11.966Z,491.00
2024-05-09T01:31:09.144Z,490.00
2024-05-09T01:32:08.259Z,491.00
2024-05-09T01:33:09.995Z,489.00
2024-05-09T01:34:08.150Z,490.00
2024-05-09T01:35:08.152Z,488.00
2024-05-09T01:36:08.155Z,491.00
2024-05-09T01:37:08.166Z,489.00
2024-05-09T01:38:08.228Z,489.00
2024-05-09T01:39:08.169Z,490.00
2024-05-09T01:40:12.257Z,492.00
2024-05-09T01:41:09.203Z,492.00
2024-05-09T01:42:08.178Z,494.00
2024-05-09T01:43:08.938Z,494.00
2024-05-09T01:44:08.215Z,494.00
2024-05-09T01:45:08.169Z,493.00
2024-05-09T01:46:08.164Z,494.00
2024-05-09T01:47:08.346Z,492.00
2024-05-09T01:48:08.447Z,490.00
2024-05-09T01:49:08.392Z,489.00
2024-05-09T01:50:10.785Z,491.00
2024-05-09T01:51:08.471Z,492.00
2024-05-09T01:52:08.320Z,494.00
2024-05-09T01:53:08.418Z,495.00
2024-05-09T01:54:08.305Z,496.00
2024-05-09T01:55:08.288Z,497.00
2024-05-09T01:56:08.360Z,497.00
2024-05-09T01:57:08.309Z,498.00
2024-05-09T01:58:08.311Z,500.00
2024-05-09T01:59:08.363Z,501.00
2024-05-09T02:00:10.248Z,498.00
2024-05-09T02:01:08.347Z,497.00
2024-05-09T02:02:08.505Z,494.00
2024-05-09T02:03:08.601Z,497.00
2024-05-09T02:04:08.563Z,495.00
2024-05-09T02:05:08.632Z,497.00
2024-05-09T02:06:08.694Z,497.00
2024-05-09T02:07:08.531Z,495.00
2024-05-09T02:08:08.653Z,492.00
2024-05-09T02:09:08.680Z,493.00
2024-05-09T02:10:16.159Z,494.00
2024-05-09T02:11:09.856Z,493.00
2024-05-09T02:12:08.923Z,493.00
2024-05-09T02:13:08.777Z,492.00
2024-05-09T02:14:08.797Z,492.00
2024-05-09T02:15:08.758Z,491.00
2024-05-09T02:16:08.770Z,494.00
2024-05-09T02:17:08.886Z,493.00
2024-05-09T02:18:09.227Z,490.00
2024-05-09T02:19:08.867Z,488.00
2024-05-09T02:20:13.228Z,489.00
2024-05-09T02:21:09.913Z,487.00
2024-05-09T02:22:08.887Z,490.00
2024-05-09T02:23:09.156Z,489.00
2024-05-09T02:24:08.888Z,488.00
2024-05-09T02:25:08.884Z,487.00
2024-05-09T02:26:08.925Z,489.00
2024-05-09T02:27:08.911Z,490.00
2024-05-09T02:28:08.889Z,491.00
2024-05-09T02:29:08.915Z,490.00
2024-05-09T02:30:18.509Z,491.00
2024-05-09T02:31:09.979Z,491.00
2024-05-09T02:32:09.097Z,490.00
2024-05-09T02:33:10.075Z,491.00
2024-05-09T02:34:09.119Z,491.00
2024-05-09T02:35:09.008Z,491.00
2024-05-09T02:36:09.024Z,492.00
2024-05-09T02:37:09.434Z,491.00
2024-05-09T02:38:09.172Z,490.00
2024-05-09T02:39:09.000Z,490.00
2024-05-09T02:40:14.279Z,490.00
2024-05-09T02:41:10.076Z,488.00
2024-05-09T02:42:09.008Z,492.00
2024-05-09T02:43:10.439Z,496.00
2024-05-09T02:44:09.036Z,498.00
2024-05-09T02:45:09.033Z,498.00
2024-05-09T02:46:09.084Z,498.00
2024-05-09T02:47:09.289Z,500.00
2024-05-09T02:48:09.309Z,503.00
2024-05-09T02:49:09.310Z,502.00
2024-05-09T02:50:13.264Z,500.00
2024-05-09T02:51:10.527Z,499.00
2024-05-09T02:52:09.337Z,498.00
2024-05-09T02:53:10.029Z,497.00
2024-05-09T02:54:09.341Z,496.00
2024-05-09T02:55:09.346Z,495.00
2024-05-09T02:56:09.415Z,496.00
2024-05-09T02:57:09.355Z,495.00
2024-05-09T02:58:09.504Z,494.00
2024-05-09T02:59:09.421Z,489.00
2024-05-09T03:00:15.232Z,489.00
2024-05-09T03:01:10.490Z,489.00
2024-05-09T03:02:09.573Z,488.00
2024-05-09T03:03:11.281Z,485.00
2024-05-09T03:04:09.540Z,487.00
2024-05-09T03:05:09.547Z,489.00
2024-05-09T03:06:09.506Z,491.00
2024-05-09T03:07:09.483Z,491.00
2024-05-09T03:08:09.727Z,487.00
2024-05-09T03:09:09.480Z,486.00
2024-05-09T03:10:18.226Z,488.00
2024-05-09T03:11:10.615Z,487.00
2024-05-09T03:12:09.574Z,488.00
2024-05-09T03:13:09.473Z,487.00
2024-05-09T03:14:09.521Z,487.00
2024-05-09T03:15:09.469Z,487.00
2024-05-09T03:16:09.482Z,490.00
2024-05-09T03:17:09.545Z,491.00
2024-05-09T03:18:09.879Z,491.00
2024-05-09T03:19:09.623Z,491.00
2024-05-09T03:20:16.978Z,491.00
2024-05-09T03:21:10.704Z,491.00
2024-05-09T03:22:09.582Z,491.00
2024-05-09T03:23:10.380Z,490.00
2024-05-09T03:24:09.593Z,490.00
2024-05-09T03:25:09.624Z,492.00
2024-05-09T03:26:09.666Z,493.00
2024-05-09T03:27:09.599Z,493.00
2024-05-09T03:28:09.592Z,494.00
2024-05-09T03:29:09.609Z,494.00
2024-05-09T03:30:10.031Z,494.00
2024-05-09T03:31:09.705Z,493.00
2024-05-09T03:32:09.817Z,490.00
2024-05-09T03:33:10.068Z,487.00
2024-05-09T03:34:09.936Z,487.00
2024-05-09T03:35:09.936Z,484.00
2024-05-09T03:36:11.384Z,484.00
2024-05-09T03:37:10.044Z,487.00
2024-05-09T03:38:10.187Z,489.00
2024-05-09T03:39:10.162Z,490.00
2024-05-09T03:40:17.537Z,491.00
2024-05-09T03:41:11.383Z,489.00
2024-05-09T03:42:10.219Z,488.00
2024-05-09T03:43:10.218Z,487.00
2024-05-09T03:44:10.257Z,487.00
2024-05-09T03:45:10.225Z,485.00
2024-05-09T03:46:10.221Z,484.00
2024-05-09T03:47:10.284Z,482.00
2024-05-09T03:48:10.568Z,483.00
2024-05-09T03:49:10.304Z,486.00
2024-05-09T03:50:18.121Z,486.00
2024-05-09T03:51:11.373Z,484.00
2024-05-09T03:52:10.331Z,482.00
2024-05-09T03:53:10.473Z,482.00
2024-05-09T03:54:10.328Z,482.00
2024-05-09T03:55:10.340Z,486.00
2024-05-09T03:56:10.347Z,484.00
2024-05-09T03:57:10.325Z,485.00
2024-05-09T03:58:10.328Z,487.00
2024-05-09T03:59:10.424Z,485.00
2024-05-09T04:00:17.657Z,485.00
2024-05-09T04:01:11.445Z,484.00
2024-05-09T04:02:10.498Z,480.00
2024-05-09T04:03:12.274Z,481.00
2024-05-09T04:04:10.450Z,482.00
2024-05-09T04:05:10.453Z,482.00
2024-05-09T04:06:10.442Z,482.00
2024-05-09T04:07:10.444Z,481.00
2024-05-09T04:08:11.189Z,483.00
2024-05-09T04:09:10.442Z,485.00
2024-05-09T04:10:20.578Z,483.00
2024-05-09T04:11:11.581Z,482.00
2024-05-09T04:12:10.597Z,483.00
2024-05-09T04:13:10.457Z,483.00
2024-05-09T04:14:10.498Z,484.00
2024-05-09T04:15:13.227Z,482.00
2024-05-09T04:16:10.457Z,480.00
2024-05-09T04:17:17.706Z,486.00
2024-05-09T04:18:17.691Z,482.00
2024-05-09T04:19:17.882Z,482.00
2024-05-09T04:20:28.735Z,481.00
2024-05-09T04:21:18.632Z,484.00
2024-05-09T04:22:17.681Z,486.00
2024-05-09T04:23:17.708Z,487.00
2024-05-09T04:24:17.657Z,487.00
2024-05-09T04:25:17.655Z,487.00
2024-05-09T04:26:17.680Z,490.00
2024-05-09T04:27:17.642Z,489.00
2024-05-09T04:28:17.642Z,488.00
2024-05-09T04:29:17.703Z,489.00
2024-05-09T04:30:25.769Z,490.00
2024-05-09T04:31:29.772Z,484.00
2024-05-09T04:32:29.963Z,487.00
2024-05-09T04:33:30.038Z,487.00
2024-05-09T04:34:29.835Z,489.00
2024-05-09T04:35:29.865Z,490.00
2024-05-09T04:36:29.786Z,492.00
2024-05-09T04:37:29.793Z,494.00
2024-05-09T04:38:29.808Z,494.00
2024-05-09T04:39:29.789Z,497.00
2024-05-09T04:40:34.192Z,496.00
2024-05-09T04:41:30.857Z,494.00
2024-05-09T04:42:29.800Z,496.00
2024-05-09T04:43:29.807Z,497.00
2024-05-09T04:44:29.857Z,495.00
2024-05-09T04:45:29.813Z,493.00
2024-05-09T04:46:29.803Z,490.00
2024-05-09T04:47:29.949Z,487.00
2024-05-09T04:48:30.007Z,486.00
2024-05-09T04:49:29.926Z,486.00
2024-05-09T04:50:36.326Z,486.00
2024-05-09T04:51:30.826Z,487.00
2024-05-09T04:52:29.823Z,488.00
2024-05-09T04:53:29.850Z,489.00
2024-05-09T04:54:35.982Z,489.00
2024-05-09T04:55:30.878Z,492.00
2024-05-09T04:56:29.890Z,491.00
2024-05-09T04:57:29.843Z,494.00
2024-05-09T04:58:29.844Z,494.00
2024-05-09T04:59:29.887Z,495.00
2024-05-09T05:00:35.668Z,493.00
2024-05-09T05:01:30.951Z,494.00
2024-05-09T05:02:29.957Z,492.00
2024-05-09T05:03:30.000Z,494.00
2024-05-09T05:04:29.906Z,496.00
2024-05-09T05:05:29.905Z,497.00
2024-05-09T05:06:29.857Z,498.00
2024-05-09T05:07:29.863Z,497.00
2024-05-09T05:08:29.886Z,497.00
2024-05-09T05:09:29.866Z,498.00
2024-05-09T05:10:35.692Z,496.00
2024-05-09T05:11:30.955Z,496.00
2024-05-09T05:12:29.953Z,493.00
2024-05-09T05:13:29.874Z,494.00
2024-05-09T05:14:29.937Z,495.00
2024-05-09T05:15:29.881Z,494.00
2024-05-09T05:16:29.885Z,495.00
2024-05-09T05:17:30.033Z,494.00
2024-05-09T05:18:29.970Z,495.00
2024-05-09T05:19:30.013Z,497.00
2024-05-09T05:20:33.635Z,496.00
2024-05-09T05:21:30.032Z,495.00
2024-05-09T05:22:29.947Z,493.00
2024-05-09T05:23:29.993Z,491.00
2024-05-09T05:24:29.947Z,492.00
2024-05-09T05:25:29.950Z,493.00
2024-05-09T05:26:29.993Z,493.00
2024-05-09T05:27:29.958Z,493.00
2024-05-09T05:28:29.953Z,493.00
2024-05-09T05:29:30.014Z,495.00
2024-05-09T05:30:34.490Z,494.00
2024-05-09T05:31:30.989Z,494.00
2024-05-09T05:32:30.076Z,495.00
2024-05-09T05:33:30.150Z,496.00
2024-05-09T05:34:29.968Z,494.00
2024-05-09T05:35:30.174Z,493.00
2024-05-09T05:36:29.976Z,492.00
2024-05-09T05:37:29.975Z,493.00
2024-05-09T05:38:30.077Z,492.00
2024-05-09T05:39:30.012Z,488.00
2024-05-09T05:40:36.246Z,487.00
2024-05-09T05:41:31.170Z,486.00
2024-05-09T05:42:30.110Z,487.00
2024-05-09T05:43:30.125Z,486.00
2024-05-09T05:44:30.174Z,484.00
2024-05-09T05:45:30.117Z,483.00
2024-05-09T05:46:30.115Z,481.00
2024-05-09T05:47:30.221Z,484.00
2024-05-09T05:48:30.165Z,484.00
2024-05-09T05:49:30.229Z,486.00
2024-05-09T05:50:35.815Z,488.00
2024-05-09T05:51:31.217Z,490.00
2024-05-09T05:52:30.225Z,489.00
2024-05-09T05:53:30.325Z,488.00
2024-05-09T05:54:30.233Z,488.00
2024-05-09T05:55:30.269Z,491.00
2024-05-09T05:56:30.386Z,489.00
2024-05-09T05:57:30.222Z,487.00
2024-05-09T05:58:30.226Z,488.00
2024-05-09T05:59:30.268Z,484.00
2024-05-09T06:00:37.741Z,485.00
2024-05-09T06:01:31.383Z,487.00
2024-05-09T06:02:30.418Z,489.00
2024-05-09T06:03:30.444Z,491.00
2024-05-09T06:04:30.325Z,489.00
2024-05-09T06:05:30.334Z,487.00
2024-05-09T06:06:30.331Z,486.00
2024-05-09T06:07:30.328Z,488.00
2024-05-09T06:08:30.697Z,490.00
2024-05-09T06:09:30.333Z,492.00
2024-05-09T06:10:37.691Z,490.00
2024-05-09T06:11:31.625Z,490.00
2024-05-09T06:12:30.383Z,492.00
2024-05-09T06:13:30.368Z,493.00
2024-05-09T06:14:30.442Z,493.00
2024-05-09T06:15:30.359Z,489.00
2024-05-09T06:16:30.343Z,487.00
2024-05-09T06:17:30.490Z,487.00
2024-05-09T06:18:30.540Z,486.00
2024-05-09T06:19:30.724Z,488.00
2024-05-09T06:20:35.926Z,486.00
2024-05-09T06:21:31.365Z,486.00
2024-05-09T06:22:30.395Z,485.00
2024-05-09T06:23:30.376Z,483.00
2024-05-09T06:24:30.363Z,480.00
2024-05-09T06:25:30.370Z,480.00
2024-05-09T06:26:30.410Z,480.00
2024-05-09T06:27:30.365Z,481.00
2024-05-09T06:28:30.365Z,479.00
2024-05-09T06:29:30.457Z,478.00
2024-05-09T06:30:37.809Z,479.00
2024-05-09T06:31:31.384Z,480.00
2024-05-09T06:32:30.492Z,482.00
2024-05-09T06:33:30.549Z,482.00
2024-05-09T06:34:30.512Z,484.00
2024-05-09T06:35:30.570Z,484.00
2024-05-09T06:36:30.382Z,484.00
2024-05-09T06:37:30.398Z,482.00
2024-05-09T06:38:30.451Z,483.00
2024-05-09T06:39:30.384Z,489.00
2024-05-09T06:40:37.072Z,490.00
2024-05-09T06:41:31.451Z,491.00
2024-05-09T06:42:30.390Z,489.00
2024-05-09T06:43:30.395Z,489.00
2024-05-09T06:44:30.472Z,486.00
2024-05-09T06:45:30.396Z,486.00
2024-05-09T06:46:30.396Z,488.00
2024-05-09T06:47:30.546Z,484.00
2024-05-09T06:48:30.506Z,480.00
2024-05-09T06:49:30.527Z,480.00
2024-05-09T06:50:35.823Z,481.00
2024-05-09T06:51:31.423Z,483.00
2024-05-09T06:52:30.436Z,482.00
2024-05-09T06:53:30.470Z,481.00
2024-05-09T06:54:30.407Z,482.00
2024-05-09T06:55:30.411Z,484.00
2024-05-09T06:56:30.511Z,482.00
2024-05-09T06:57:30.429Z,484.00
2024-05-09T06:58:30.425Z,484.00
2024-05-09T06:59:30.490Z,485.00
2024-05-09T07:00:38.005Z,488.00
2024-05-09T07:01:31.602Z,488.00
2024-05-09T07:02:30.488Z,488.00
2024-05-09T07:03:30.582Z,489.00
2024-05-09T07:04:30.504Z,489.00
2024-05-09T07:05:30.459Z,488.00
2024-05-09T07:06:30.433Z,487.00
2024-05-09T07:07:30.444Z,491.00
2024-05-09T07:08:30.461Z,490.00
2024-05-09T07:09:30.516Z,490.00
2024-05-09T07:10:34.887Z,490.00
2024-05-09T07:11:31.638Z,492.00
2024-05-09T07:12:30.530Z,491.00
2024-05-09T07:13:30.461Z,491.00
2024-05-09T07:14:30.530Z,487.00
2024-05-09T07:15:30.466Z,487.00
2024-05-09T07:16:30.463Z,487.00
2024-05-09T07:17:30.651Z,488.00
2024-05-09T07:18:30.673Z,488.00
2024-05-09T07:19:30.607Z,487.00
2024-05-09T07:20:34.514Z,486.00
2024-05-09T07:21:30.503Z,486.00
2024-05-09T07:22:30.482Z,488.00
2024-05-09T07:23:30.608Z,488.00
2024-05-09T07:24:30.477Z,489.00
2024-05-09T07:25:30.736Z,488.00
2024-05-09T07:26:30.522Z,489.00
2024-05-09T07:27:30.487Z,487.00
2024-05-09T07:28:30.484Z,487.00
2024-05-09T07:29:30.569Z,487.00
2024-05-09T07:30:33.673Z,485.00
2024-05-09T07:31:30.491Z,485.00
2024-05-09T07:32:30.578Z,484.00
2024-05-09T07:33:30.542Z,484.00
2024-05-09T07:34:30.650Z,486.00
2024-05-09T07:35:31.054Z,485.00
2024-05-09T07:36:30.495Z,485.00
2024-05-09T07:37:30.499Z,486.00
2024-05-09T07:38:30.570Z,487.00
2024-05-09T07:39:30.501Z,486.00
2024-05-09T07:40:35.691Z,480.00
2024-05-09T07:41:31.629Z,478.00
2024-05-09T07:42:30.526Z,481.00
2024-05-09T07:43:30.513Z,484.00
2024-05-09T07:44:30.705Z,486.00
2024-05-09T07:45:47.419Z,488.00
2024-05-09T07:47:37.140Z,485.00
2024-05-09T07:48:57.387Z,486.00
2024-05-09T07:50:01.289Z,487.00
2024-05-09T07:53:08.333Z,484.00
2024-05-09T07:53:40.446Z,486.00
2024-05-09T07:54:31.662Z,488.00
2024-05-09T07:55:30.818Z,488.00
2024-05-09T07:56:31.309Z,485.00
2024-05-09T07:57:30.599Z,483.00
2024-05-09T07:58:30.573Z,482.00
2024-05-09T07:59:33.296Z,480.00
2024-05-09T08:00:31.996Z,480.00
2024-05-09T08:01:30.625Z,480.00
2024-05-09T08:02:30.784Z,479.00
2024-05-09T08:03:30.638Z,480.00
2024-05-09T08:04:30.618Z,480.00
2024-05-09T08:05:30.643Z,481.00
2024-05-09T08:06:30.616Z,483.00
2024-05-09T08:07:30.579Z,487.00
2024-05-09T08:08:30.585Z,487.00
2024-05-09T08:09:30.608Z,485.00
2024-05-09T08:10:30.662Z,483.00
2024-05-09T08:11:30.663Z,480.00
2024-05-09T08:12:30.624Z,478.00
2024-05-09T08:13:30.606Z,480.00
2024-05-09T08:14:30.593Z,483.00
2024-05-09T08:15:30.669Z,482.00
2024-05-09T08:16:30.759Z,485.00
2024-05-09T08:17:30.840Z,488.00
2024-05-09T08:18:31.119Z,486.00
2024-05-09T08:19:30.899Z,487.00
2024-05-09T08:20:35.013Z,486.00
2024-05-09T08:21:31.071Z,488.00
2024-05-09T08:22:30.929Z,486.00
2024-05-09T08:23:30.944Z,483.00
2024-05-09T08:24:31.031Z,482.00
2024-05-09T08:25:30.950Z,484.00
2024-05-09T08:26:30.935Z,488.00
2024-05-09T08:27:30.994Z,487.00
2024-05-09T08:28:30.955Z,486.00
2024-05-09T08:29:30.947Z,486.00
2024-05-09T08:30:36.529Z,487.00
2024-05-09T08:31:32.020Z,486.00
2024-05-09T08:32:31.030Z,484.00
2024-05-09T08:33:31.248Z,483.00
2024-05-09T08:34:31.049Z,478.00
2024-05-09T08:35:30.968Z,480.00
2024-05-09T08:36:30.977Z,481.00
2024-05-09T08:38:30.966Z,484.00
2024-05-09T08:39:31.012Z,481.00
2024-05-09T08:40:35.230Z,481.00
2024-05-09T08:41:31.990Z,484.00
2024-05-09T08:42:31.010Z,483.00
2024-05-09T08:43:31.032Z,480.00
2024-05-09T08:44:31.501Z,478.00
2024-05-09T08:45:31.119Z,478.00
2024-05-09T08:46:31.047Z,479.00
2024-05-09T08:47:31.034Z,480.00
2024-05-09T08:48:31.152Z,481.00
2024-05-09T08:49:31.052Z,484.00
2024-05-09T08:50:37.896Z,485.00
2024-05-09T08:51:32.029Z,484.00
2024-05-09T08:52:30.989Z,484.00
2024-05-09T08:53:30.992Z,482.00
2024-05-09T08:54:31.020Z,481.00
2024-05-09T08:55:31.004Z,481.00
2024-05-09T08:56:30.990Z,480.00
2024-05-09T08:57:31.025Z,479.00
2024-05-09T08:58:30.999Z,480.00
2024-05-09T08:59:30.991Z,479.00
2024-05-09T09:00:36.597Z,480.00
2024-05-09T09:01:32.174Z,481.00
2024-05-09T09:02:31.171Z,482.00
2024-05-09T09:03:31.329Z,480.00
2024-05-09T09:04:31.214Z,483.00
2024-05-09T09:05:31.252Z,484.00
2024-05-09T09:06:31.086Z,484.00
2024-05-09T09:07:31.109Z,486.00
2024-05-09T09:08:31.069Z,485.00
2024-05-09T09:09:31.110Z,482.00
2024-05-09T09:10:32.711Z,482.00
2024-05-09T09:11:31.228Z,484.00
2024-05-09T09:12:31.370Z,481.00
2024-05-09T09:13:31.436Z,479.00
2024-05-09T09:14:31.470Z,478.00
2024-05-09T09:15:31.566Z,478.00
2024-05-09T09:16:31.598Z,478.00
2024-05-09T09:17:31.747Z,477.00
2024-05-09T09:18:31.979Z,478.00
2024-05-09T09:19:31.830Z,478.00
2024-05-09T09:20:36.438Z,477.00
2024-05-09T09:21:32.981Z,479.00
2024-05-09T09:22:31.838Z,478.00
2024-05-09T09:23:31.925Z,478.00
2024-05-09T09:24:31.888Z,478.00
2024-05-09T09:25:32.144Z,477.00
2024-05-09T09:26:31.848Z,476.00
2024-05-09T09:27:31.897Z,475.00
2024-05-09T09:28:31.846Z,475.00
2024-05-09T09:29:31.917Z,477.00
2024-05-09T09:30:36.961Z,476.00
2024-05-09T09:31:33.180Z,476.00
2024-05-09T09:32:32.111Z,476.00
2024-05-09T09:33:32.798Z,477.00
2024-05-09T09:34:32.309Z,475.00
2024-05-09T09:35:31.989Z,475.00
2024-05-09T09:36:32.056Z,471.00
2024-05-09T09:37:31.992Z,472.00
2024-05-09T09:38:32.001Z,473.00
2024-05-09T09:39:32.088Z,471.00
2024-05-09T09:40:34.033Z,469.00
2024-05-09T09:41:32.098Z,472.00
2024-05-09T09:42:32.137Z,475.00
2024-05-09T09:43:32.130Z,477.00
2024-05-09T09:44:32.951Z,477.00
2024-05-09T09:45:32.134Z,478.00
2024-05-09T09:46:32.216Z,476.00
2024-05-09T09:47:32.352Z,476.00
2024-05-09T09:48:32.440Z,474.00
2024-05-09T09:49:32.190Z,473.00
2024-05-09T09:50:34.776Z,472.00
2024-05-09T09:51:32.142Z,471.00
2024-05-09T09:52:32.153Z,470.00
2024-05-09T09:53:32.145Z,469.00
2024-05-09T09:54:32.173Z,470.00
2024-05-09T09:55:32.121Z,471.00
2024-05-09T09:56:32.131Z,472.00
2024-05-09T09:57:32.174Z,472.00
2024-05-09T09:58:32.169Z,473.00
2024-05-09T09:59:32.141Z,474.00
2024-05-09T10:00:33.459Z,473.00
2024-05-09T10:01:32.264Z,472.00
2024-05-09T10:02:32.348Z,469.00
2024-05-09T10:03:32.363Z,471.00
2024-05-09T10:04:32.275Z,471.00
2024-05-09T10:05:32.336Z,473.00
2024-05-09T10:06:32.202Z,472.00
2024-05-09T10:07:32.140Z,469.00
2024-05-09T10:08:32.153Z,469.00
2024-05-09T10:09:32.254Z,469.00
2024-05-09T10:10:33.295Z,466.00
2024-05-09T10:11:36.995Z,466.00
2024-05-09T10:12:33.426Z,463.00
2024-05-09T10:13:32.387Z,462.00
2024-05-09T10:14:32.337Z,463.00
2024-05-09T10:15:32.369Z,462.00
2024-05-09T10:16:32.409Z,461.00
2024-05-09T10:17:32.436Z,465.00
2024-05-09T10:18:34.201Z,462.00
2024-05-09T10:19:32.446Z,462.00
2024-05-09T10:20:32.931Z,460.00
2024-05-09T10:21:32.444Z,461.00
2024-05-09T10:22:32.430Z,461.00
2024-05-09T10:23:32.713Z,462.00
2024-05-09T10:24:32.556Z,465.00
2024-05-09T10:25:32.629Z,467.00
2024-05-09T10:26:32.588Z,469.00
2024-05-09T10:27:32.656Z,470.00
2024-05-09T10:28:32.741Z,470.00
2024-05-09T10:29:32.679Z,470.00
2024-05-09T10:30:36.179Z,470.00
2024-05-09T10:31:32.779Z,470.00
2024-05-09T10:32:32.860Z,471.00
2024-05-09T10:33:32.822Z,466.00
2024-05-09T10:34:32.864Z,465.00
2024-05-09T10:35:32.742Z,465.00
2024-05-09T10:36:32.796Z,465.00
2024-05-09T10:37:32.797Z,464.00
2024-05-09T10:38:32.758Z,466.00
2024-05-09T10:39:32.869Z,467.00
2024-05-09T10:40:32.841Z,468.00
2024-05-09T10:41:32.760Z,468.00
2024-05-09T10:42:32.794Z,469.00
2024-05-09T10:43:32.770Z,468.00
2024-05-09T10:44:32.752Z,467.00
2024-05-09T10:45:32.807Z,470.00
2024-05-09T10:46:32.816Z,470.00
2024-05-09T10:47:32.825Z,469.00
2024-05-09T10:48:32.835Z,470.00
2024-05-09T10:49:32.849Z,470.00
2024-05-09T10:50:34.484Z,467.00
2024-05-09T10:51:32.820Z,467.00
2024-05-09T10:52:32.775Z,469.00
2024-05-09T10:53:32.768Z,469.00
2024-05-09T10:54:32.814Z,471.00
2024-05-09T10:55:32.872Z,472.00
2024-05-09T10:56:32.774Z,472.00
2024-05-09T10:57:32.800Z,474.00
2024-05-09T10:58:32.800Z,474.00
2024-05-09T10:59:32.783Z,474.00
2024-05-09T11:00:35.976Z,473.00
2024-05-09T11:01:32.847Z,471.00
2024-05-09T11:02:33.038Z,471.00
2024-05-09T11:03:32.974Z,471.00
2024-05-09T11:04:32.846Z,471.00
2024-05-09T11:05:32.953Z,469.00
2024-05-09T11:06:32.900Z,470.00
2024-05-09T11:07:32.852Z,468.00
2024-05-09T11:08:33.037Z,467.00
2024-05-09T11:09:32.864Z,469.00
2024-05-09T11:10:34.420Z,470.00
2024-05-09T11:11:32.866Z,469.00
2024-05-09T11:12:32.870Z,469.00
2024-05-09T11:13:32.832Z,470.00
2024-05-09T11:14:32.827Z,469.00
2024-05-09T11:15:32.858Z,469.00
2024-05-09T11:16:32.840Z,468.00
2024-05-09T11:17:32.910Z,468.00
2024-05-09T11:18:36.580Z,470.00
2024-05-09T11:19:33.945Z,469.00
2024-05-09T11:20:35.056Z,465.00
2024-05-09T11:21:32.883Z,464.00
2024-05-09T11:22:32.842Z,463.00
2024-05-09T11:23:33.099Z,463.00
2024-05-09T11:24:32.902Z,463.00
2024-05-09T11:25:32.827Z,466.00
2024-05-09T11:26:32.829Z,467.00
2024-05-09T11:27:32.888Z,468.00
2024-05-09T11:28:32.828Z,468.00
2024-05-09T11:29:32.834Z,468.00
2024-05-09T11:30:32.875Z,467.00
2024-05-09T11:31:33.201Z,464.00
2024-05-09T11:32:33.331Z,465.00
2024-05-09T11:33:32.958Z,465.00
2024-05-09T11:34:33.014Z,465.00
2024-05-09T11:35:32.838Z,464.00
2024-05-09T11:36:32.967Z,465.00
2024-05-09T11:37:35.415Z,466.00
2024-05-09T11:38:32.852Z,463.00
2024-05-09T11:39:32.933Z,464.00
2024-05-09T11:40:34.577Z,466.00
2024-05-09T11:41:32.846Z,466.00
2024-05-09T11:42:32.902Z,467.00
2024-05-09T11:43:33.037Z,469.00
2024-05-09T11:44:32.861Z,469.00
2024-05-09T11:45:32.913Z,471.00
2024-05-09T11:46:32.866Z,470.00
2024-05-09T11:47:32.953Z,467.00
2024-05-09T11:48:33.022Z,468.00
2024-05-09T11:49:33.120Z,468.00
2024-05-09T11:50:35.760Z,469.00
2024-05-09T11:51:32.921Z,471.00
2024-05-09T11:52:32.879Z,471.00
2024-05-09T11:53:32.909Z,472.00
2024-05-09T11:54:32.940Z,472.00
2024-05-09T11:55:32.928Z,473.00
2024-05-09T11:56:32.882Z,473.00
2024-05-09T11:57:32.917Z,474.00
2024-05-09T11:58:32.888Z,473.00
2024-05-09T11:59:32.884Z,469.00
2024-05-09T12:00:37.004Z,466.00
2024-05-09T12:01:34.018Z,463.00
2024-05-09T12:02:32.987Z,461.00
2024-05-09T12:03:33.068Z,460.00
2024-05-09T12:04:33.025Z,460.00
2024-05-09T12:05:33.632Z,461.00
2024-05-09T12:06:32.939Z,462.00
2024-05-09T12:07:32.904Z,461.00
2024-05-09T12:08:32.914Z,464.00
2024-05-09T12:09:32.960Z,463.00
2024-05-09T12:10:35.498Z,464.00
2024-05-09T12:11:32.934Z,464.00
2024-05-09T12:12:35.361Z,462.00
2024-05-09T12:13:33.036Z,460.00
2024-05-09T12:14:32.913Z,460.00
2024-05-09T12:15:33.070Z,462.00
2024-05-09T12:16:33.147Z,461.00
2024-05-09T12:17:33.070Z,465.00
2024-05-09T12:18:33.028Z,462.00
2024-05-09T12:19:33.012Z,464.00
2024-05-09T12:20:37.292Z,463.00
2024-05-09T12:21:33.977Z,463.00
2024-05-09T12:22:32.943Z,465.00
2024-05-09T12:23:32.946Z,468.00
2024-05-09T12:24:33.010Z,468.00
2024-05-09T12:25:32.976Z,467.00
2024-05-09T12:26:32.937Z,467.00
2024-05-09T12:27:33.007Z,468.00
2024-05-09T12:28:33.012Z,469.00
2024-05-09T12:29:35.002Z,471.00
2024-05-09T12:30:37.836Z,469.00
2024-05-09T12:31:34.007Z,469.00
2024-05-09T12:32:32.993Z,467.00